createdAt,value
2023-11-30T00:00:22.064Z,30.70
2023-11-30T00:03:09.061Z,27.35
2023-11-30T00:05:36.825Z,30.38
2023-11-30T00:08:03.721Z,30.52
2023-11-30T00:10:30.793Z,25.70
2023-11-30T00:12:57.627Z,29.77
2023-11-30T00:15:24.819Z,30.58
2023-11-30T00:17:51.694Z,28.75
2023-11-30T00:20:18.840Z,30.20
2023-11-30T00:22:47.220Z,26.00
2023-11-30T00:25:14.358Z,25.05
2023-11-30T00:27:41.171Z,31.00
2023-11-30T00:30:08.924Z,26.40
2023-11-30T00:32:36.915Z,25.02
2023-11-30T00:35:04.647Z,25.30
2023-11-30T00:37:31.469Z,22.92
2023-11-30T00:39:58.612Z,22.55
2023-11-30T00:42:26.819Z,24.15
2023-11-30T00:44:54.194Z,22.67
2023-11-30T00:47:21.004Z,23.38
2023-11-30T00:49:48.194Z,22.33
2023-11-30T00:52:15.017Z,23.10
2023-11-30T00:54:42.121Z,23.00
2023-11-30T00:57:08.933Z,25.15
2023-11-30T00:59:36.073Z,24.00
2023-11-30T01:02:02.914Z,24.90
2023-11-30T01:04:30.045Z,22.98
2023-11-30T01:06:56.885Z,28.33
2023-11-30T01:09:24.036Z,23.30
2023-11-30T01:11:50.932Z,23.00
2023-11-30T01:14:18.114Z,24.15
2023-11-30T01:16:46.079Z,22.65
2023-11-30T01:19:13.366Z,24.52
2023-11-30T01:21:40.302Z,25.40
2023-11-30T01:24:07.648Z,23.90
2023-11-30T01:26:34.464Z,24.88
2023-11-30T01:29:01.558Z,23.10
2023-11-30T01:31:28.376Z,25.42
2023-11-30T01:33:55.517Z,24.15
2023-11-30T01:36:22.430Z,21.33
2023-11-30T01:38:49.576Z,25.13
2023-11-30T01:41:16.653Z,20.17
2023-11-30T01:43:43.740Z,22.70
2023-11-30T01:46:11.044Z,20.02
2023-11-30T01:48:38.208Z,20.67
2023-11-30T01:51:06.774Z,20.45
2023-11-30T01:53:37.769Z,21.17
2023-11-30T01:56:05.323Z,19.85
2023-11-30T01:58:32.465Z,23.10
2023-11-30T02:01:00.124Z,23.58
2023-11-30T02:03:27.824Z,18.95
2023-11-30T02:05:54.720Z,21.20
2023-11-30T02:08:21.839Z,22.23
2023-11-30T02:10:48.623Z,22.20
2023-11-30T02:13:15.733Z,21.00
2023-11-30T02:15:42.607Z,20.58
2023-11-30T02:18:09.872Z,20.27
2023-11-30T02:20:36.773Z,17.65
2023-11-30T02:23:03.918Z,21.17
2023-11-30T02:25:30.692Z,18.52
2023-11-30T02:27:59.845Z,20.95
2023-11-30T02:30:27.045Z,22.58
2023-11-30T02:32:54.419Z,22.08
2023-11-30T02:35:21.423Z,22.42
2023-11-30T02:37:48.599Z,21.92
2023-11-30T02:40:15.487Z,21.98
2023-11-30T02:42:42.648Z,23.25
2023-11-30T02:45:10.269Z,23.13
2023-11-30T02:47:37.504Z,21.63
2023-11-30T02:50:04.769Z,18.00
2023-11-30T02:52:32.367Z,18.60
2023-11-30T02:54:59.148Z,20.52
2023-11-30T02:57:26.589Z,22.92
2023-11-30T02:59:53.431Z,19.85
2023-11-30T03:02:20.655Z,21.15
2023-11-30T03:04:47.841Z,20.88
2023-11-30T03:07:15.061Z,21.63
2023-11-30T03:09:41.879Z,18.67
2023-11-30T03:12:09.160Z,21.05
2023-11-30T03:14:36.101Z,20.08
2023-11-30T03:17:03.526Z,22.20
2023-11-30T03:19:30.324Z,21.45
2023-11-30T03:21:57.736Z,19.52
2023-11-30T03:24:24.593Z,20.73
2023-11-30T03:26:51.883Z,23.15
2023-11-30T03:29:18.712Z,18.98
2023-11-30T03:31:45.875Z,19.10
2023-11-30T03:34:12.723Z,20.83
2023-11-30T03:36:40.016Z,20.15
2023-11-30T03:39:07.070Z,20.58
2023-11-30T03:41:34.252Z,20.75
2023-11-30T03:44:01.093Z,20.52
2023-11-30T03:46:28.756Z,19.63
2023-11-30T03:48:55.674Z,19.45
2023-11-30T03:51:22.876Z,18.27
2023-11-30T03:53:49.772Z,19.83
2023-11-30T03:56:16.847Z,21.55
2023-11-30T03:58:43.878Z,21.05
2023-11-30T04:01:10.968Z,18.98
2023-11-30T04:03:37.948Z,21.13
2023-11-30T04:06:05.370Z,19.75
2023-11-30T04:08:32.204Z,21.13
2023-11-30T04:10:59.312Z,22.33
2023-11-30T04:13:26.667Z,20.80
2023-11-30T04:15:53.772Z,19.77
2023-11-30T04:18:20.740Z,22.70
2023-11-30T04:20:47.895Z,22.50
2023-11-30T04:23:14.860Z,19.65
2023-11-30T04:25:41.998Z,24.40
2023-11-30T04:28:09.964Z,21.67
2023-11-30T04:30:37.275Z,22.65
2023-11-30T04:33:05.252Z,23.35
2023-11-30T04:35:32.891Z,24.85
2023-11-30T04:37:59.801Z,20.90
2023-11-30T04:40:26.944Z,22.25
2023-11-30T04:42:53.876Z,23.50
2023-11-30T04:45:21.104Z,24.58
2023-11-30T04:47:47.941Z,27.98
2023-11-30T04:50:15.058Z,29.38
2023-11-30T04:52:41.909Z,26.15
2023-11-30T04:55:09.401Z,26.02
2023-11-30T04:57:36.375Z,26.73
2023-11-30T05:00:06.563Z,27.33
2023-11-30T05:02:34.370Z,27.85
2023-11-30T05:05:01.652Z,26.58
2023-11-30T05:07:28.597Z,26.60
2023-11-30T05:09:55.751Z,28.02
2023-11-30T05:12:22.551Z,26.02
2023-11-30T05:14:49.813Z,32.00
2023-11-30T05:17:16.599Z,31.40
2023-11-30T05:19:43.737Z,33.15
2023-11-30T05:22:12.438Z,31.30
2023-11-30T05:24:39.811Z,34.50
2023-11-30T05:27:06.750Z,32.60
2023-11-30T05:29:34.054Z,29.75
2023-11-30T05:32:00.906Z,31.00
2023-11-30T05:34:28.098Z,35.35
2023-11-30T05:36:54.910Z,29.13
2023-11-30T05:39:22.060Z,32.05
2023-11-30T05:41:48.873Z,26.90
2023-11-30T05:44:16.853Z,32.92
2023-11-30T05:46:43.803Z,27.98
2023-11-30T05:49:11.103Z,31.15
2023-11-30T05:51:37.964Z,30.45
2023-11-30T05:54:05.355Z,27.55
2023-11-30T05:56:32.202Z,26.77
2023-11-30T05:58:59.380Z,30.40
2023-11-30T06:01:26.491Z,27.65
2023-11-30T06:03:53.942Z,31.27
2023-11-30T06:06:21.025Z,32.58
2023-11-30T06:08:48.409Z,33.08
2023-11-30T06:11:18.273Z,35.80
2023-11-30T06:13:46.475Z,39.13
2023-11-30T06:16:13.434Z,49.78
2023-11-30T06:18:40.621Z,49.85
2023-11-30T06:21:10.586Z,49.45
2023-11-30T06:23:38.490Z,55.22
2023-11-30T06:26:06.249Z,55.08
2023-11-30T06:28:33.395Z,59.58
2023-11-30T06:31:00.203Z,52.88
2023-11-30T06:33:27.886Z,60.65
2023-11-30T06:35:54.834Z,59.33
2023-11-30T06:38:22.002Z,53.33
2023-11-30T06:40:50.203Z,53.22
2023-11-30T06:43:17.685Z,52.83
2023-11-30T06:45:44.717Z,54.88
2023-11-30T06:48:11.961Z,56.53
2023-11-30T06:50:38.816Z,49.60
2023-11-30T06:53:06.013Z,58.03
2023-11-30T06:55:32.952Z,57.45
2023-11-30T06:58:00.181Z,57.20
2023-11-30T07:00:28.180Z,50.55
2023-11-30T07:02:55.550Z,53.15
2023-11-30T07:05:22.444Z,56.78
2023-11-30T07:07:49.799Z,56.65
2023-11-30T07:10:16.757Z,53.15
2023-11-30T07:12:44.179Z,50.75
2023-11-30T07:15:11.161Z,48.97
2023-11-30T07:17:38.372Z,56.38
2023-11-30T07:20:05.919Z,47.05
2023-11-30T07:22:33.050Z,53.20
2023-11-30T07:24:59.883Z,55.28
2023-11-30T07:27:27.689Z,51.00
2023-11-30T07:29:54.993Z,52.80
2023-11-30T07:32:22.141Z,50.47
2023-11-30T07:34:49.497Z,52.03
2023-11-30T07:37:17.722Z,51.22
2023-11-30T07:39:45.388Z,51.92
2023-11-30T07:42:13.414Z,54.08
2023-11-30T07:44:41.039Z,48.40
2023-11-30T07:47:08.236Z,50.13
2023-11-30T07:49:35.063Z,54.67
2023-11-30T07:52:02.639Z,53.13
2023-11-30T07:54:29.713Z,57.20
2023-11-30T07:56:56.839Z,53.05
2023-11-30T07:59:23.710Z,55.55
2023-11-30T08:01:50.875Z,53.72
2023-11-30T08:04:17.915Z,52.20
2023-11-30T08:06:46.018Z,52.95
2023-11-30T08:09:14.711Z,49.38
2023-11-30T08:11:42.218Z,50.05
2023-11-30T08:14:10.197Z,48.03
2023-11-30T08:16:39.085Z,52.05
2023-11-30T08:19:07.676Z,49.13
2023-11-30T08:21:37.171Z,47.42
2023-11-30T08:24:05.308Z,47.50
2023-11-30T08:26:32.439Z,47.45
2023-11-30T08:28:59.228Z,44.75
2023-11-30T08:31:26.824Z,42.28
2023-11-30T08:33:53.725Z,42.05
2023-11-30T08:36:21.008Z,41.28
2023-11-30T08:38:47.842Z,38.00
2023-11-30T08:41:14.948Z,38.00
2023-11-30T08:43:42.035Z,36.78
2023-11-30T08:46:09.573Z,34.75
2023-11-30T08:48:36.469Z,34.55
2023-11-30T08:51:03.756Z,40.40
2023-11-30T08:53:30.742Z,34.80
2023-11-30T08:55:57.973Z,34.58
2023-11-30T08:58:24.800Z,35.67
2023-11-30T09:00:51.898Z,31.25
2023-11-30T09:03:19.431Z,30.75
2023-11-30T09:05:46.721Z,27.88
2023-11-30T09:08:13.541Z,29.63
2023-11-30T09:10:40.853Z,29.15
2023-11-30T09:13:09.235Z,28.05
2023-11-30T09:15:37.414Z,25.27
2023-11-30T09:18:04.701Z,27.88
2023-11-30T09:20:31.994Z,27.13
2023-11-30T09:22:58.889Z,26.20
2023-11-30T09:25:26.287Z,27.88
2023-11-30T09:27:53.191Z,26.40
2023-11-30T09:30:20.335Z,30.45
2023-11-30T09:32:47.286Z,27.52
2023-11-30T09:35:14.476Z,27.55
2023-11-30T09:37:41.394Z,29.80
2023-11-30T09:40:10.572Z,30.90
2023-11-30T09:42:37.438Z,28.73
2023-11-30T09:45:05.581Z,34.25
2023-11-30T09:47:32.641Z,31.60
2023-11-30T09:50:01.897Z,27.08
2023-11-30T09:52:29.795Z,30.08
2023-11-30T09:54:57.772Z,28.02
2023-11-30T09:57:24.709Z,27.55
2023-11-30T09:59:51.934Z,30.15
2023-11-30T10:02:20.242Z,27.50
2023-11-30T10:04:47.537Z,30.67
2023-11-30T10:07:14.456Z,25.92
2023-11-30T10:09:41.730Z,26.13
2023-11-30T10:12:08.847Z,22.35
2023-11-30T10:14:36.054Z,22.42
2023-11-30T10:17:03.071Z,22.25
2023-11-30T10:19:31.803Z,27.65
2023-11-30T10:21:58.829Z,26.77
2023-11-30T10:24:26.705Z,24.65
2023-11-30T10:26:53.632Z,24.58
2023-11-30T10:29:22.171Z,22.92
2023-11-30T10:31:50.853Z,24.73
2023-11-30T10:34:20.350Z,22.77
2023-11-30T10:36:47.240Z,26.85
2023-11-30T10:39:24.510Z,22.17
2023-11-30T10:41:56.083Z,24.73
2023-11-30T10:44:27.711Z,19.77
2023-11-30T10:46:59.574Z,20.77
2023-11-30T10:49:28.412Z,24.00
2023-11-30T10:51:59.062Z,23.35
2023-11-30T10:54:32.981Z,18.92
2023-11-30T10:57:00.844Z,24.00
2023-11-30T10:59:31.640Z,23.58
2023-11-30T11:01:58.853Z,21.83
2023-11-30T11:04:29.257Z,19.40
2023-11-30T11:07:15.120Z,23.10
2023-11-30T11:09:51.369Z,20.98
2023-11-30T11:12:24.726Z,20.88
2023-11-30T11:14:54.146Z,18.27
2023-11-30T11:17:21.688Z,19.77
2023-11-30T11:19:48.890Z,20.95
2023-11-30T11:22:15.768Z,18.08
2023-11-30T11:24:43.085Z,21.80
2023-11-30T11:27:10.782Z,21.92
2023-11-30T11:29:42.571Z,18.88
2023-11-30T11:32:12.376Z,19.38
2023-11-30T11:34:39.481Z,15.85
2023-11-30T11:37:08.316Z,16.58
2023-11-30T11:39:35.628Z,17.10
2023-11-30T11:42:03.619Z,16.90
2023-11-30T11:44:30.835Z,18.45
2023-11-30T11:46:57.663Z,15.65
2023-11-30T11:49:24.940Z,18.90
2023-11-30T11:51:51.927Z,14.82
2023-11-30T11:54:19.969Z,16.48
2023-11-30T11:56:49.849Z,17.08
2023-11-30T11:59:33.188Z,18.33
2023-11-30T12:02:01.025Z,18.40
2023-11-30T12:04:35.191Z,17.33
2023-11-30T12:07:15.857Z,18.20
2023-11-30T12:09:43.388Z,17.23
2023-11-30T12:12:10.276Z,20.55
2023-11-30T12:14:37.447Z,17.85
2023-11-30T12:17:04.372Z,18.10
2023-11-30T12:19:31.453Z,18.98
2023-11-30T12:21:58.378Z,18.90
2023-11-30T12:24:25.620Z,16.15
2023-11-30T12:26:52.547Z,20.45
2023-11-30T12:29:19.652Z,18.80
2023-11-30T12:31:46.477Z,18.95
2023-11-30T12:34:13.754Z,20.38
2023-11-30T12:36:40.667Z,17.92
2023-11-30T12:39:08.424Z,22.27
2023-11-30T12:41:35.355Z,15.82
2023-11-30T12:44:04.914Z,20.05
2023-11-30T12:46:32.526Z,20.25
2023-11-30T12:48:59.777Z,22.90
2023-11-30T12:51:26.660Z,20.70
2023-11-30T12:53:53.878Z,19.20
2023-11-30T12:56:20.864Z,21.10
2023-11-30T12:58:48.267Z,22.60
2023-11-30T13:01:15.195Z,30.77
2023-11-30T13:03:42.929Z,24.88
2023-11-30T13:06:11.255Z,23.27
2023-11-30T13:08:38.490Z,27.98
2023-11-30T13:11:05.471Z,29.08
2023-11-30T13:13:41.866Z,28.15
2023-11-30T13:16:10.797Z,30.73
2023-11-30T13:18:38.338Z,29.40
2023-11-30T13:21:06.386Z,29.92
2023-11-30T13:23:33.663Z,27.63
2023-11-30T13:26:00.564Z,29.70
2023-11-30T13:28:35.422Z,31.02
2023-11-30T13:31:07.684Z,29.00
2023-11-30T13:33:35.521Z,33.80
2023-11-30T13:36:02.375Z,34.30
2023-11-30T13:38:29.543Z,33.38
2023-11-30T13:40:56.357Z,35.25
2023-11-30T13:43:24.194Z,32.67
2023-11-30T13:45:52.172Z,35.72
2023-11-30T13:48:19.563Z,38.53
2023-11-30T13:50:53.362Z,36.33
2023-11-30T13:53:23.678Z,28.75
2023-11-30T13:55:50.525Z,33.60
2023-11-30T13:58:17.667Z,36.88
2023-11-30T14:00:44.673Z,30.52
2023-11-30T14:03:12.427Z,34.00
2023-11-30T14:05:39.448Z,36.70
2023-11-30T14:08:06.803Z,34.25
2023-11-30T14:10:33.713Z,37.60
2023-11-30T14:13:00.997Z,38.28
2023-11-30T14:15:27.899Z,38.60
2023-11-30T14:17:55.074Z,35.88
2023-11-30T14:20:22.314Z,36.90
2023-11-30T14:22:49.645Z,42.03
2023-11-30T14:25:16.695Z,38.55
2023-11-30T14:27:46.803Z,44.30
2023-11-30T14:30:14.513Z,46.75
2023-11-30T14:32:42.206Z,54.38
2023-11-30T14:35:09.367Z,53.13
2023-11-30T14:37:36.565Z,62.15
2023-11-30T14:40:05.188Z,67.43
2023-11-30T14:42:32.983Z,63.20
2023-11-30T14:44:59.935Z,65.97
2023-11-30T14:47:28.090Z,73.38
2023-11-30T14:49:56.105Z,83.32
2023-11-30T14:52:23.915Z,87.32
2023-11-30T14:54:53.594Z,87.43
2023-11-30T14:57:20.999Z,82.07
2023-11-30T14:59:50.829Z,89.63
2023-11-30T15:02:18.581Z,96.75
2023-11-30T15:04:45.556Z,99.47
2023-11-30T15:07:12.630Z,100.95
2023-11-30T15:09:41.559Z,93.28
2023-11-30T15:12:09.081Z,97.32
2023-11-30T15:14:35.916Z,98.32
2023-11-30T15:17:03.302Z,98.00
2023-11-30T15:19:30.140Z,102.97
2023-11-30T15:21:57.261Z,99.28
2023-11-30T15:24:24.123Z,96.88
2023-11-30T15:26:51.512Z,93.20
2023-11-30T15:29:18.343Z,93.47
2023-11-30T15:31:45.541Z,93.07
2023-11-30T15:34:12.352Z,96.45
2023-11-30T15:36:42.819Z,96.82
2023-11-30T15:39:14.697Z,101.95
2023-11-30T15:41:47.036Z,101.22
2023-11-30T15:44:14.200Z,95.15
2023-11-30T15:46:44.704Z,101.78
2023-11-30T15:49:14.493Z,98.38
2023-11-30T15:51:43.174Z,105.95
2023-11-30T15:54:10.942Z,103.72
2023-11-30T15:56:38.427Z,97.85
2023-11-30T15:59:05.292Z,108.30
2023-11-30T16:01:32.545Z,100.00
2023-11-30T16:04:00.403Z,109.63
2023-11-30T16:06:27.808Z,108.07
2023-11-30T16:08:55.263Z,99.45
2023-11-30T16:11:22.370Z,105.72
2023-11-30T16:13:49.457Z,108.78
2023-11-30T16:16:17.065Z,118.15
2023-11-30T16:18:43.989Z,121.30
2023-11-30T16:21:18.650Z,123.75
2023-11-30T16:23:46.380Z,123.80
2023-11-30T16:26:17.810Z,125.72
2023-11-30T16:28:45.106Z,122.95
2023-11-30T16:31:12.508Z,135.43
2023-11-30T16:33:40.424Z,144.88
2023-11-30T16:36:08.788Z,136.15
2023-11-30T16:38:36.153Z,158.15
2023-11-30T16:41:03.967Z,137.15
2023-11-30T16:43:32.454Z,134.20
2023-11-30T16:45:59.733Z,138.32
2023-11-30T16:48:27.011Z,138.10
2023-11-30T16:50:54.142Z,135.07
2023-11-30T16:53:20.974Z,134.07
2023-11-30T16:55:48.587Z,140.52
2023-11-30T16:58:15.393Z,142.50
2023-11-30T17:00:42.760Z,146.00
2023-11-30T17:03:09.654Z,140.13
2023-11-30T17:05:38.866Z,148.65
2023-11-30T17:08:05.717Z,149.93
2023-11-30T17:10:32.839Z,152.77
2023-11-30T17:12:59.710Z,148.60
2023-11-30T17:15:27.081Z,151.35
2023-11-30T17:17:53.957Z,149.30
2023-11-30T17:20:21.039Z,145.43
2023-11-30T17:22:50.727Z,147.43
2023-11-30T17:25:17.943Z,155.07
2023-11-30T17:27:44.783Z,152.98
2023-11-30T17:30:12.262Z,164.77
2023-11-30T17:32:39.183Z,157.00
2023-11-30T17:35:07.025Z,157.23
2023-11-30T17:37:33.930Z,158.18
2023-11-30T17:40:01.535Z,165.80
2023-11-30T17:42:28.526Z,161.48
2023-11-30T17:44:55.839Z,168.00
2023-11-30T17:47:23.144Z,169.43
2023-11-30T17:49:50.289Z,160.25
2023-11-30T17:52:17.244Z,168.23
2023-11-30T17:54:44.462Z,166.82
2023-11-30T17:57:11.348Z,170.30
2023-11-30T17:59:38.579Z,197.77
2023-11-30T18:02:05.647Z,199.93
2023-11-30T18:04:33.280Z,185.82
2023-11-30T18:07:00.190Z,194.60
2023-11-30T18:09:28.038Z,183.70
2023-11-30T18:11:55.095Z,175.98
2023-11-30T18:14:23.591Z,180.38
2023-11-30T18:16:50.490Z,177.88
2023-11-30T18:19:17.720Z,185.77
2023-11-30T18:21:44.559Z,178.98
2023-11-30T18:24:11.806Z,188.95
2023-11-30T18:26:38.604Z,193.25
2023-11-30T18:29:06.075Z,198.35
2023-11-30T18:31:33.347Z,210.93
2023-11-30T18:34:00.600Z,214.82
2023-11-30T18:36:27.595Z,209.20
2023-11-30T18:38:55.012Z,206.43
2023-11-30T18:41:22.069Z,205.60
2023-11-30T18:43:49.927Z,201.98
2023-11-30T18:46:17.099Z,190.13
2023-11-30T18:48:44.680Z,194.48
2023-11-30T18:51:11.641Z,205.32
2023-11-30T18:53:39.016Z,207.85
2023-11-30T18:56:06.204Z,211.07
2023-11-30T18:58:33.405Z,214.75
2023-11-30T19:01:00.307Z,210.35
2023-11-30T19:03:27.616Z,215.20
2023-11-30T19:05:55.047Z,218.65
2023-11-30T19:08:22.227Z,231.85
2023-11-30T19:10:49.070Z,232.48
2023-11-30T19:13:16.311Z,238.32
2023-11-30T19:15:43.334Z,249.57
2023-11-30T19:18:10.940Z,253.63
2023-11-30T19:20:38.339Z,271.23
2023-11-30T19:23:05.693Z,262.75
2023-11-30T19:25:35.331Z,261.00
2023-11-30T19:28:02.585Z,243.32
2023-11-30T19:30:29.599Z,244.82
2023-11-30T19:32:56.777Z,255.10
2023-11-30T19:35:23.590Z,261.80
2023-11-30T19:37:50.748Z,273.30
2023-11-30T19:40:17.826Z,281.85
2023-11-30T19:42:44.957Z,277.27
2023-11-30T19:45:12.015Z,308.17
2023-11-30T19:47:39.543Z,302.73
2023-11-30T19:50:07.175Z,291.10
2023-11-30T19:52:36.279Z,302.25
2023-11-30T19:55:04.859Z,292.58
2023-11-30T19:57:32.096Z,294.65
2023-11-30T19:59:59.014Z,300.98
2023-11-30T20:02:26.456Z,304.02
2023-11-30T20:04:53.376Z,296.70
2023-11-30T20:07:20.707Z,296.08
2023-11-30T20:09:47.632Z,293.90
2023-11-30T20:12:14.790Z,300.38
2023-11-30T20:14:42.188Z,298.33
2023-11-30T20:17:09.411Z,286.05
2023-11-30T20:19:36.472Z,296.63
2023-11-30T20:22:04.051Z,298.40
2023-11-30T20:24:35.092Z,298.55
2023-11-30T20:27:08.658Z,295.58
2023-11-30T20:29:35.582Z,292.40
2023-11-30T20:32:02.840Z,296.17
2023-11-30T20:34:29.719Z,304.77
2023-11-30T20:36:57.517Z,302.80
2023-11-30T20:39:25.907Z,298.35
2023-11-30T20:41:53.236Z,305.23
2023-11-30T20:44:20.487Z,304.92
2023-11-30T20:46:47.636Z,309.48
2023-11-30T20:49:15.023Z,304.33
2023-11-30T20:51:42.279Z,299.42
2023-11-30T20:54:10.243Z,299.60
2023-11-30T20:56:37.576Z,317.83
2023-11-30T20:59:04.400Z,309.70
2023-11-30T21:01:32.265Z,308.60
2023-11-30T21:12:15.616Z,308.23
2023-11-30T21:14:43.141Z,304.60
2023-11-30T21:17:10.478Z,303.98
2023-11-30T21:19:37.400Z,311.75
2023-11-30T21:22:05.005Z,311.15
2023-11-30T21:24:34.252Z,318.00
2023-11-30T21:27:01.559Z,310.95
2023-11-30T21:29:28.466Z,306.92
2023-11-30T21:31:55.721Z,311.88
2023-11-30T21:34:22.646Z,311.83
2023-11-30T21:36:50.211Z,315.00
2023-11-30T21:39:17.141Z,315.48
2023-11-30T21:41:44.345Z,313.20
2023-11-30T21:44:11.292Z,301.65
2023-11-30T21:46:38.497Z,298.25
2023-11-30T21:49:05.735Z,310.25
2023-11-30T21:51:33.372Z,299.00
2023-11-30T21:54:03.211Z,298.33
2023-11-30T21:56:30.437Z,285.88
2023-11-30T21:58:57.374Z,283.05
2023-11-30T22:01:24.786Z,295.60
2023-11-30T22:03:51.816Z,301.13
2023-11-30T22:06:19.076Z,286.48
2023-11-30T22:08:49.919Z,298.73
2023-11-30T22:11:18.330Z,289.08
2023-11-30T22:13:45.933Z,289.58
2023-11-30T22:16:15.035Z,276.02
2023-11-30T22:18:43.720Z,301.67
2023-11-30T22:21:10.976Z,287.83
2023-11-30T22:23:37.887Z,285.48
2023-11-30T22:26:05.319Z,286.77
2023-11-30T22:28:32.290Z,288.67
2023-11-30T22:31:00.004Z,287.15
2023-11-30T22:33:27.034Z,282.25
2023-11-30T22:35:54.354Z,280.38
2023-11-30T22:38:21.877Z,284.95
2023-11-30T22:40:49.157Z,281.30
2023-11-30T22:43:16.005Z,278.35
2023-11-30T22:45:43.291Z,283.88
2023-11-30T22:48:10.240Z,295.60
2023-11-30T22:50:37.565Z,280.40
2023-11-30T22:53:04.654Z,296.85
2023-11-30T22:55:32.016Z,284.55
2023-11-30T22:57:58.989Z,291.83
2023-11-30T23:00:27.599Z,294.08
2023-11-30T23:02:54.694Z,297.35
2023-11-30T23:05:22.191Z,300.92
2023-11-30T23:07:49.198Z,283.33
2023-11-30T23:10:18.695Z,293.90
2023-11-30T23:12:46.232Z,287.85
2023-11-30T23:15:13.620Z,284.77
2023-11-30T23:17:40.701Z,281.83
2023-11-30T23:20:08.598Z,278.58
2023-11-30T23:22:36.085Z,270.75
2023-11-30T23:25:06.594Z,282.23
2023-11-30T23:27:33.603Z,280.05
2023-11-30T23:30:01.092Z,278.75
2023-11-30T23:32:28.103Z,275.98
2023-11-30T23:34:55.390Z,271.00
2023-11-30T23:37:22.426Z,280.48
2023-11-30T23:39:49.736Z,276.98
2023-11-30T23:42:17.075Z,270.35
2023-11-30T23:44:44.463Z,285.98
2023-11-30T23:47:11.619Z,284.42
2023-11-30T23:49:38.945Z,282.17
2023-11-30T23:52:06.524Z,273.38
2023-11-30T23:54:33.904Z,277.20
2023-11-30T23:57:00.919Z,273.55
2023-11-30T23:59:28.185Z,275.23
